page 7975 of 1004638 registered users

eBook PostsUsers

  1. 0larchrange04 registered @ 2013-06-20 10:23:57, last login @ 2013-06-20 10:23:57
  2. 0bottom18jeff registered @ 2013-06-20 10:24:00, last login @ 2013-06-20 10:24:00
  3. 0study3second registered @ 2013-06-20 10:24:43, last login @ 2013-06-20 10:24:43
  4. 0mfnandes registered @ 2013-06-20 10:24:58, last login @ 2013-06-20 10:24:58
  5. 0basesun3 registered @ 2013-06-20 10:25:38, last login @ 2013-06-20 10:25:38
  6. 0body86kale registered @ 2013-06-20 10:27:07, last login @ 2013-06-20 10:27:07
  7. 0ruth4gallon registered @ 2013-06-20 10:27:27, last login @ 2013-06-20 10:27:27
  8. 0amount20yogurt registered @ 2013-06-20 10:27:58, last login @ 2013-06-20 10:27:58
  9. 0outputbattle79 registered @ 2013-06-20 10:28:22, last login @ 2013-06-20 10:28:22
  10. 0whj_jojo registered @ 2013-06-20 10:29:58, last login @ 2013-06-20 10:29:58
  11. 0helentarget2 registered @ 2013-06-20 10:30:05, last login @ 2013-06-20 10:30:05
  12. 0rubmouth85 registered @ 2013-06-20 10:31:13, last login @ 2013-06-20 10:31:13
  13. 0doctordust78 registered @ 2013-06-20 10:31:28, last login @ 2013-06-20 10:31:28
  14. 0asia08italy registered @ 2013-06-20 10:32:12, last login @ 2013-06-20 10:32:12
  15. 0benchfrench50 registered @ 2013-06-20 10:32:21, last login @ 2013-06-20 10:32:21
  16. 0partylibra01 registered @ 2013-06-20 10:33:03, last login @ 2013-06-20 10:33:03
  17. 0agenda0brick registered @ 2013-06-20 10:33:18, last login @ 2013-06-20 10:33:18
  18. 0artpull81 registered @ 2013-06-20 10:34:03, last login @ 2013-06-20 10:34:03
  19. 0baconplain2 registered @ 2013-06-20 10:34:14, last login @ 2013-06-20 10:34:14
  20. 0modem9greek registered @ 2013-06-20 10:34:47, last login @ 2013-06-20 10:34:47
  21. 0point8dress registered @ 2013-06-20 10:35:00, last login @ 2013-06-20 10:35:00
  22. 0hubcapflood9 registered @ 2013-06-20 10:35:48, last login @ 2013-06-20 10:35:48
  23. 0plier85attic registered @ 2013-06-20 10:35:50, last login @ 2013-06-20 10:35:50
  24. 0nightflute41 registered @ 2013-06-20 10:36:32, last login @ 2013-06-20 10:36:32
  25. 0fired20step registered @ 2013-06-20 10:38:05, last login @ 2013-06-20 10:38:05
  26. 0pumaheat9 registered @ 2013-06-20 10:38:10, last login @ 2013-06-20 10:38:10
  27. 0bread1arch registered @ 2013-06-20 10:38:19, last login @ 2013-06-20 10:38:19
  28. 0number95train registered @ 2013-06-20 10:38:54, last login @ 2013-06-20 10:38:54
  29. 0falllaugh83 registered @ 2013-06-20 10:39:21, last login @ 2013-06-20 10:39:21
  30. 0glove68tempo registered @ 2013-06-20 10:39:21, last login @ 2013-06-20 10:39:21
  31. 0liploss7 registered @ 2013-06-20 10:39:40, last login @ 2013-06-20 10:39:40
  32. 0syriaseal7 registered @ 2013-06-20 10:42:41, last login @ 2013-06-20 10:42:41
  33. 0rugby25quilt registered @ 2013-06-20 10:43:13, last login @ 2013-06-20 10:43:13
  34. 0metal81cornet registered @ 2013-06-20 10:43:16, last login @ 2013-06-20 10:43:16
  35. 0border4state registered @ 2013-06-20 10:43:58, last login @ 2013-06-20 10:43:58
  36. 0bacon1crib registered @ 2013-06-20 10:44:00, last login @ 2013-06-20 10:44:00
  37. 0bay48knee registered @ 2013-06-20 10:44:06, last login @ 2013-06-20 10:44:06
  38. 0ink8niece registered @ 2013-06-20 10:45:36, last login @ 2013-06-20 10:45:36
  39. 0latex46stitch registered @ 2013-06-20 10:47:20, last login @ 2013-06-20 10:47:20
  40. 0candle28income registered @ 2013-06-20 10:48:41, last login @ 2013-06-20 10:48:41
  41. 0client76trunk registered @ 2013-06-20 10:49:13, last login @ 2013-06-20 10:49:13
  42. 0deervelvet5 registered @ 2013-06-20 10:49:51, last login @ 2013-06-20 10:49:51
  43. 0cuban21top registered @ 2013-06-20 10:51:08, last login @ 2013-06-20 10:51:08
  44. 0dugoutpizza82 registered @ 2013-06-20 10:54:14, last login @ 2013-06-20 10:54:14
  45. 0suiteight00 registered @ 2013-06-20 10:54:21, last login @ 2013-06-20 10:54:21
  46. 0dewminute9 registered @ 2013-06-20 10:55:36, last login @ 2013-06-20 10:55:36
  47. 0baokhanh registered @ 2013-06-20 10:57:00, last login @ 2013-06-20 10:57:00
  48. 0silksalmon19 registered @ 2013-06-20 10:58:26, last login @ 2013-06-20 10:58:26
  49. 0codfloor7 registered @ 2013-06-20 11:03:27, last login @ 2013-06-20 11:03:27
  50. 0helium8pants registered @ 2013-06-20 11:04:41, last login @ 2013-06-20 11:04:41
  51. 0harp4tray registered @ 2013-06-20 11:04:43, last login @ 2013-06-20 11:04:43
  52. 0beggar3canoe registered @ 2013-06-20 11:05:22, last login @ 2013-06-20 11:05:22
  53. 0nightjacket4 registered @ 2013-06-20 11:05:49, last login @ 2013-06-20 11:05:49
  54. 0cubanmilk1 registered @ 2013-06-20 11:06:13, last login @ 2013-06-20 11:06:13
  55. 0pagesponge43 registered @ 2013-06-20 11:07:16, last login @ 2013-06-20 11:07:16
  56. 0oceanshrine28 registered @ 2013-06-20 11:08:07, last login @ 2013-06-20 11:59:58
  57. 0handle3family registered @ 2013-06-20 11:08:20, last login @ 2013-06-20 11:08:20
  58. 0pound3format registered @ 2013-06-20 11:08:51, last login @ 2013-06-20 11:08:51
  59. 0lockvase1 registered @ 2013-06-20 11:09:11, last login @ 2013-06-20 11:09:11
  60. 0babybridge59 registered @ 2013-06-20 11:10:12, last login @ 2013-06-20 11:10:12
  61. 0cavepest5 registered @ 2013-06-20 11:10:13, last login @ 2013-06-20 11:10:13
  62. 0gaugerail39 registered @ 2013-06-20 11:10:37, last login @ 2013-06-20 11:10:37
  63. 0women0summer registered @ 2013-06-20 11:11:17, last login @ 2013-06-20 11:11:17
  64. 0dead82corn registered @ 2013-06-20 11:12:19, last login @ 2013-06-20 11:12:19
  65. 0visionleo1 registered @ 2013-06-20 11:12:47, last login @ 2013-06-20 11:12:47
  66. 0dead6yew registered @ 2013-06-20 11:13:48, last login @ 2013-06-20 11:13:48
  67. 0birdslave76 registered @ 2013-06-20 11:14:21, last login @ 2013-06-20 11:14:21
  68. 0garagespoon77 registered @ 2013-06-20 11:14:27, last login @ 2013-06-20 11:14:27
  69. 0botany10humor registered @ 2013-06-20 11:14:30, last login @ 2013-06-20 11:14:30
  70. 0burma01hail registered @ 2013-06-20 11:14:46, last login @ 2013-06-20 11:14:46
  71. 0northicon8 registered @ 2013-06-20 11:15:13, last login @ 2013-06-20 11:49:12
  72. 0bar24dish registered @ 2013-06-20 11:16:05, last login @ 2013-06-20 11:16:05
  73. 0zephyrglass1 registered @ 2013-06-20 11:17:44, last login @ 2013-06-20 11:17:44
  74. 0beancinema74 registered @ 2013-06-20 11:19:17, last login @ 2013-06-20 11:19:17
  75. 0pliergreece1 registered @ 2013-06-20 11:19:36, last login @ 2013-06-20 11:19:36
  76. 0pruner9flood registered @ 2013-06-20 11:20:29, last login @ 2013-06-20 11:20:29
  77. 0lunge4scarf registered @ 2013-06-20 11:21:53, last login @ 2013-06-20 11:21:53
  78. 0jet7tuba registered @ 2013-06-20 11:24:23, last login @ 2013-06-20 11:24:23
  79. 0lier6coach registered @ 2013-06-20 11:25:40, last login @ 2013-06-20 11:25:40
  80. 0viewlute8 registered @ 2013-06-20 11:26:04, last login @ 2013-06-20 11:52:38
  81. 0sensecent40 registered @ 2013-06-20 11:27:09, last login @ 2013-06-20 11:27:09
  82. 0witch53flower registered @ 2013-06-20 11:27:14, last login @ 2013-06-20 11:27:14
  83. 0timer84guilty registered @ 2013-06-20 11:27:17, last login @ 2013-06-20 11:27:17
  84. 0taste83kettle registered @ 2013-06-20 11:27:30, last login @ 2013-06-20 11:27:30
  85. 0poolsupply870 registered @ 2013-06-20 11:28:01, last login @ 2013-06-20 11:28:01
  86. 0koreanturkey1 registered @ 2013-06-20 11:29:25, last login @ 2013-06-20 11:29:25
  87. 0golf5bay registered @ 2013-06-20 11:30:14, last login @ 2013-06-20 11:30:14
  88. 0shrimp65agenda registered @ 2013-06-20 11:30:34, last login @ 2013-06-20 11:30:34
  89. 0manxweight18 registered @ 2013-06-20 11:30:49, last login @ 2013-06-20 11:30:49
  90. 0idea98fox registered @ 2013-06-20 11:33:54, last login @ 2013-06-20 11:33:54
  91. 0drama8hall registered @ 2013-06-20 11:35:12, last login @ 2013-06-20 11:35:12
  92. 0cycle7tulip registered @ 2013-06-20 11:35:57, last login @ 2013-06-20 11:35:57
  93. 0donaldroast32 registered @ 2013-06-20 11:36:18, last login @ 2013-06-20 11:36:18
  94. 0waywoman6 registered @ 2013-06-20 11:36:44, last login @ 2013-06-20 11:36:44
  95. 0seal51frog registered @ 2013-06-20 11:37:20, last login @ 2013-06-20 11:37:20
  96. 0page7cake registered @ 2013-06-20 11:37:40, last login @ 2013-06-20 11:37:40
  97. 0pond0start registered @ 2013-06-20 11:38:05, last login @ 2013-06-20 11:38:05
  98. 0queenoven24 registered @ 2013-06-20 11:40:21, last login @ 2013-06-20 11:40:21
  99. 0canada17cattle registered @ 2013-06-20 11:41:59, last login @ 2013-06-20 11:41:59
  100. 0rest5juice registered @ 2013-06-20 11:42:09, last login @ 2013-06-20 11:42:09
  101. 0fontshake67 registered @ 2013-06-20 11:43:21, last login @ 2013-06-20 11:43:21

More...

[7985] [7984] [7983] [7982] [7981] [7980] [7979] [7978] [7977] [7976] [7975] [7974] [7973] [7972] [7971] [7970] [7969] [7968] [7967] [7966] ...[1]
Back to Top